NCAR-RAP Real-Time Weather Data

Output produced by METARs form (17 July 2018  04:04 UTC)
found at http://weather.rap.ucar.edu/surface/
 
Conditions at: KCOF observed 17 July 2018  03:56 UTC
Temperature: 28.1°C (83°F)
Dewpoint: 23.4°C (74°F) [RH = 76%]
Pressure (altimeter): 30.08 inches Hg (1018.7 mb)
[Sea-level pressure: 1019.0 mb]
Winds: from the SSW (200 degrees) at 5 MPH (4 knots; 2.1 m/s)
Visibility: 10 or more miles (16+ km)
Ceiling: at least 12,000 feet AGL
Clouds: sky clear below 12,000 feet AGL
Present Weather:
SOME DATA ABOVE MAY BE INACCURATE!!!
"$" is an indication the sensor requires maintenance
KCOF 170356Z AUTO 20004KT 10SM CLR 28/23 A3008 RMK AO2 SLP190 T02810234 $

Conditions at: KCOF observed 17 July 2018  02:56 UTC
Temperature: 28.9°C (84°F)
Dewpoint: 22.8°C (73°F) [RH = 70%]
Pressure (altimeter): 30.08 inches Hg (1018.7 mb)
[Sea-level pressure: 1019.0 mb]
Winds: from the WSW (240 degrees) at 5 MPH (4 knots; 2.1 m/s)
Visibility: 10 or more miles (16+ km)
Ceiling: at least 12,000 feet AGL
Clouds: scattered clouds at 6500 feet AGL
Present Weather:
SOME DATA ABOVE MAY BE INACCURATE!!!
"$" is an indication the sensor requires maintenance
KCOF 170256Z AUTO 24004KT 10SM SCT065 29/23 A3008 RMK AO2 SLP190 T02890228 52013 $

Conditions at: KCOF observed 17 July 2018  01:56 UTC
Temperature: 28.7°C (84°F)
Dewpoint: 24.4°C (76°F) [RH = 78%]
Pressure (altimeter): 30.06 inches Hg (1018.0 mb)
[Sea-level pressure: 1018.4 mb]
Winds: from the SSE (150 degrees) at 3 MPH (3 knots; 1.6 m/s)
Visibility: 10 or more miles (16+ km)
Ceiling: at least 12,000 feet AGL
Clouds: scattered clouds at 7000 feet AGL
Present Weather:
SOME DATA ABOVE MAY BE INACCURATE!!!
"$" is an indication the sensor requires maintenance
KCOF 170156Z AUTO 15003KT 10SM SCT070 29/24 A3006 RMK AO2 SLP184 T02870244 $

Conditions at: KCOF observed 17 July 2018  00:56 UTC
Temperature: 28.1°C (83°F)
Dewpoint: 23.6°C (74°F) [RH = 77%]
Pressure (altimeter): 30.05 inches Hg (1017.7 mb)
[Sea-level pressure: 1018.0 mb]
Winds: calm
Visibility: 10 or more miles (16+ km)
Ceiling: at least 12,000 feet AGL
Clouds: sky clear below 12,000 feet AGL
Present Weather:
SOME DATA ABOVE MAY BE INACCURATE!!!
"$" is an indication the sensor requires maintenance
KCOF 170056Z AUTO 00000KT 10SM CLR 28/24 A3005 RMK AO2 SLP180 T02810236 $

Conditions at: KCOF observed 17 July 2018  00:02 UTC
Temperature: 30.0°C (86°F)
Dewpoint: 25.0°C (77°F) [RH = 75%]
Pressure (altimeter): 30.05 inches Hg (1017.7 mb)
[Sea-level pressure: 1018.0 mb]
Winds: from the SSW (210 degrees) at 16 MPH (14 knots; 7.3 m/s)
Visibility: 10 or more miles (16+ km)
Ceiling: at least 12,000 feet AGL
Clouds: few clouds at 4100 feet AGL
Present Weather: VCTS  (thunderstorm in vicinity)
SOME DATA ABOVE MAY BE INACCURATE!!!
"$" is an indication the sensor requires maintenance
KCOF 170002Z AUTO 21014KT 10SM VCTS FEW041 30/25 A3005 RMK AO2 WSHFT 2352 SLP180 $

Conditions at: KCOF observed 16 July 2018  23:56 UTC
Temperature: 29.8°C (86°F)
Dewpoint: 25.3°C (78°F) [RH = 77%]
Pressure (altimeter): 30.04 inches Hg (1017.4 mb)
[Sea-level pressure: 1017.7 mb]
Winds: from the S (170 degrees) at 14 MPH (12 knots; 6.2 m/s)
Visibility: 10 or more miles (16+ km)
Ceiling: at least 12,000 feet AGL
Clouds: sky clear below 12,000 feet AGL
Present Weather: VCTS  (thunderstorm in vicinity)
SOME DATA ABOVE MAY BE INACCURATE!!!
"$" is an indication the sensor requires maintenance
KCOF 162356Z AUTO 17012KT 10SM VCTS CLR 30/25 A3004 RMK AO2 SLP177 T02980253 10321 20297 53003 $

Conditions at: KCOF observed 16 July 2018  22:56 UTC
Temperature: 30.5°C (87°F)
Dewpoint: 25.1°C (77°F) [RH = 73%]
Pressure (altimeter): 30.02 inches Hg (1016.7 mb)
[Sea-level pressure: 1017.0 mb]
Winds: from the SSE (160 degrees) at 17 MPH (15 knots; 7.8 m/s)
Visibility: 10 or more miles (16+ km)
Ceiling: at least 12,000 feet AGL
Clouds: sky clear below 12,000 feet AGL
Present Weather:
SOME DATA ABOVE MAY BE INACCURATE!!!
"$" is an indication the sensor requires maintenance
KCOF 162256Z AUTO 16015KT 10SM CLR 31/25 A3002 RMK AO2 LTG DSNT SW SLP170 T03050251 $

Conditions at: KCOF observed 16 July 2018  21:56 UTC
Temperature: 30.9°C (88°F)
Dewpoint: 24.3°C (76°F) [RH = 68%]
Pressure (altimeter): 30.02 inches Hg (1016.7 mb)
[Sea-level pressure: 1017.0 mb]
Winds: from the SSE (150 degrees) at 16 MPH (14 knots; 7.3 m/s)
Visibility: 10 or more miles (16+ km)
Ceiling: at least 12,000 feet AGL
Clouds: sky clear below 12,000 feet AGL
Present Weather:
SOME DATA ABOVE MAY BE INACCURATE!!!
"$" is an indication the sensor requires maintenance
KCOF 162156Z AUTO 15014KT 10SM CLR 31/24 A3002 RMK AO2 SLP170 T03090243 $

Conditions at: KCOF observed 16 July 2018  20:56 UTC
Temperature: 31.5°C (89°F)
Dewpoint: 24.1°C (75°F) [RH = 65%]
Pressure (altimeter): 30.03 inches Hg (1017.0 mb)
[Sea-level pressure: 1017.3 mb]
Winds: from the SE (140 degrees) at 14 MPH (12 knots; 6.2 m/s)
Visibility: 10 or more miles (16+ km)
Ceiling: at least 12,000 feet AGL
Clouds: sky clear below 12,000 feet AGL
Present Weather:
SOME DATA ABOVE MAY BE INACCURATE!!!
"$" is an indication the sensor requires maintenance
KCOF 162056Z AUTO 14012KT 10SM CLR 32/24 A3003 RMK AO2 SLP173 T03150241 56015 $

Conditions at: KCOF observed 16 July 2018  19:56 UTC
Temperature: 31.7°C (89°F)
Dewpoint: 22.7°C (73°F) [RH = 59%]
Pressure (altimeter): 30.03 inches Hg (1017.0 mb)
[Sea-level pressure: 1017.3 mb]
Winds: from the SE (130 degrees) at 13 MPH (11 knots; 5.7 m/s)
Visibility: 10 or more miles (16+ km)
Ceiling: at least 12,000 feet AGL
Clouds: sky clear below 12,000 feet AGL
Present Weather:
SOME DATA ABOVE MAY BE INACCURATE!!!
"$" is an indication the sensor requires maintenance
KCOF 161956Z AUTO 13011KT 10SM CLR 32/23 A3003 RMK AO2 SLP173 T03170227 $

Conditions at: KCOF observed 16 July 2018  18:56 UTC
Temperature: 31.7°C (89°F)
Dewpoint: 22.4°C (72°F) [RH = 58%]
Pressure (altimeter): 30.04 inches Hg (1017.4 mb)
[Sea-level pressure: 1017.7 mb]
Winds: from the SE (130 degrees) at 12 MPH (10 knots; 5.2 m/s)
Visibility: 10 or more miles (16+ km)
Ceiling: at least 12,000 feet AGL
Clouds: sky clear below 12,000 feet AGL
Present Weather:
SOME DATA ABOVE MAY BE INACCURATE!!!
"$" is an indication the sensor requires maintenance
KCOF 161856Z AUTO 13010KT 10SM CLR 32/22 A3004 RMK AO2 LTG DSNT NW-N SLP177 T03170224 $

Conditions at: KCOF observed 16 July 2018  17:56 UTC
Temperature: 31.5°C (89°F)
Dewpoint: 23.0°C (73°F) [RH = 61%]
Pressure (altimeter): 30.07 inches Hg (1018.4 mb)
[Sea-level pressure: 1018.7 mb]
Winds: from the ESE (120 degrees) at 12 MPH (10 knots; 5.2 m/s)
Visibility: 10 or more miles (16+ km)
Ceiling: 20000 feet AGL
Clouds: few clouds at 13000 feet AGL
scattered clouds at 17000 feet AGL
broken clouds at 20000 feet AGL
Present Weather:
SOME DATA ABOVE MAY BE INACCURATE!!!
"$" is an indication the sensor requires maintenance
KCOF 161756Z AUTO 12010KT 10SM FEW130 SCT170 BKN200 32/23 A3007 RMK AO2 SLP187 T03150230 10316 20279 58004 $

Conditions at: KCOF observed 16 July 2018  16:56 UTC
Temperature: 31.3°C (88°F)
Dewpoint: 22.6°C (73°F) [RH = 60%]
Pressure (altimeter): 30.08 inches Hg (1018.7 mb)
[Sea-level pressure: 1019.0 mb]
Winds: from the ESE (110 degrees) at 9 MPH (8 knots; 4.2 m/s)
Visibility: 10 or more miles (16+ km)
Ceiling: at least 12,000 feet AGL
Clouds: few clouds at 20000 feet AGL
Present Weather:
SOME DATA ABOVE MAY BE INACCURATE!!!
"$" is an indication the sensor requires maintenance
KCOF 161656Z AUTO 11008KT 10SM FEW200 31/23 A3008 RMK AO2 SLP190 T03130226 $

Conditions at: KCOF observed 16 July 2018  15:56 UTC
Temperature: 31.0°C (88°F)
Dewpoint: 23.6°C (74°F) [RH = 65%]
Pressure (altimeter): 30.10 inches Hg (1019.4 mb)
[Sea-level pressure: 1019.7 mb]
Winds: from the ESE (120 degrees) at 8 MPH (7 knots; 3.6 m/s)
Visibility: 10 or more miles (16+ km)
Ceiling: at least 12,000 feet AGL
Clouds: sky clear below 12,000 feet AGL
Present Weather:
SOME DATA ABOVE MAY BE INACCURATE!!!
"$" is an indication the sensor requires maintenance
KCOF 161556Z AUTO 12007KT 10SM CLR 31/24 A3010 RMK AO2 SLP197 T03100236 $

Conditions at: KCOF observed 16 July 2018  14:56 UTC
Temperature: 30.7°C (87°F)
Dewpoint: 23.3°C (74°F) [RH = 65%]
Pressure (altimeter): 30.08 inches Hg (1018.7 mb)
[Sea-level pressure: 1019.0 mb]
Winds: from the SE (130 degrees) at 9 MPH (8 knots; 4.2 m/s)
Visibility: 10 or more miles (16+ km)
Ceiling: at least 12,000 feet AGL
Clouds: sky clear below 12,000 feet AGL
Present Weather:
SOME DATA ABOVE MAY BE INACCURATE!!!
"$" is an indication the sensor requires maintenance
KCOF 161456Z AUTO 13008KT 10SM CLR 31/23 A3008 RMK AO2 SLP190 T03070233 52005 $

Conditions at: KCOF observed 16 July 2018  13:56 UTC
Temperature: 30.5°C (87°F)
Dewpoint: 22.9°C (73°F) [RH = 64%]
Pressure (altimeter): 30.08 inches Hg (1018.7 mb)
[Sea-level pressure: 1019.0 mb]
Winds: from the S (190 degrees) at 7 MPH (6 knots; 3.1 m/s)
Visibility: 10 or more miles (16+ km)
Ceiling: at least 12,000 feet AGL
Clouds: sky clear below 12,000 feet AGL
Present Weather:
SOME DATA ABOVE MAY BE INACCURATE!!!
"$" is an indication the sensor requires maintenance
KCOF 161356Z AUTO 19006KT 10SM CLR 31/23 A3008 RMK AO2 SLP190 T03050229 $

Conditions at: KCOF observed 16 July 2018  12:56 UTC
Temperature: 29.3°C (85°F)
Dewpoint: 23.2°C (74°F) [RH = 70%]
Pressure (altimeter): 30.07 inches Hg (1018.4 mb)
[Sea-level pressure: 1018.7 mb]
Winds: from the SSE (150 degrees) at 9 MPH (8 knots; 4.2 m/s)
Visibility: 10 or more miles (16+ km)
Ceiling: at least 12,000 feet AGL
Clouds: sky clear below 12,000 feet AGL
Present Weather:
SOME DATA ABOVE MAY BE INACCURATE!!!
"$" is an indication the sensor requires maintenance
KCOF 161256Z AUTO 15008KT 10SM CLR 29/23 A3007 RMK AO2 SLP187 T02930232 $

Conditions at: KCOF observed 16 July 2018  11:56 UTC
Temperature: 27.8°C (82°F)
Dewpoint: 23.6°C (74°F) [RH = 78%]
Pressure (altimeter): 30.07 inches Hg (1018.4 mb)
[Sea-level pressure: 1018.7 mb]
Winds: from the S (190 degrees) at 7 MPH (6 knots; 3.1 m/s)
Visibility: 10 or more miles (16+ km)
Ceiling: at least 12,000 feet AGL
Clouds: sky clear below 12,000 feet AGL
Present Weather:
SOME DATA ABOVE MAY BE INACCURATE!!!
"$" is an indication the sensor requires maintenance
KCOF 161156Z AUTO 19006KT 10SM CLR 28/24 A3007 RMK AO2 SLP187 T02780236 10278 20262 52011 $

Conditions at: KCOF observed 16 July 2018  10:56 UTC
Temperature: 26.4°C (80°F)
Dewpoint: 23.4°C (74°F) [RH = 84%]
Pressure (altimeter): 30.06 inches Hg (1018.0 mb)
[Sea-level pressure: 1018.4 mb]
Winds: from the S (170 degrees) at 5 MPH (4 knots; 2.1 m/s)
Visibility: 10 or more miles (16+ km)
Ceiling: at least 12,000 feet AGL
Clouds: sky clear below 12,000 feet AGL
Present Weather:
SOME DATA ABOVE MAY BE INACCURATE!!!
"$" is an indication the sensor requires maintenance
KCOF 161056Z AUTO 17004KT 10SM CLR 26/23 A3006 RMK AO2 SLP184 T02640234 $

Conditions at: KCOF observed 16 July 2018  09:56 UTC
Temperature: 26.3°C (79°F)
Dewpoint: 23.1°C (74°F) [RH = 83%]
Pressure (altimeter): 30.04 inches Hg (1017.4 mb)
[Sea-level pressure: 1017.7 mb]
Winds: from the S (170 degrees) at 5 MPH (4 knots; 2.1 m/s)
Visibility: 10 or more miles (16+ km)
Ceiling: at least 12,000 feet AGL
Clouds: sky clear below 12,000 feet AGL
Present Weather:
SOME DATA ABOVE MAY BE INACCURATE!!!
"$" is an indication the sensor requires maintenance
KCOF 160956Z AUTO 17004KT 10SM CLR 26/23 A3004 RMK AO2 SLP177 T02630231 $

Conditions at: KCOF observed 16 July 2018  08:56 UTC
Temperature: 26.6°C (80°F)
Dewpoint: 23.6°C (74°F) [RH = 84%]
Pressure (altimeter): 30.04 inches Hg (1017.4 mb)
[Sea-level pressure: 1017.7 mb]
Winds: from the S (180 degrees) at 7 MPH (6 knots; 3.1 m/s)
Visibility: 10 or more miles (16+ km)
Ceiling: at least 12,000 feet AGL
Clouds: sky clear below 12,000 feet AGL
Present Weather:
SOME DATA ABOVE MAY BE INACCURATE!!!
"$" is an indication the sensor requires maintenance
KCOF 160856Z AUTO 18006KT 10SM CLR 27/24 A3004 RMK AO2 SLP177 T02660236 57008 $

Conditions at: KCOF observed 16 July 2018  07:56 UTC
Temperature: 26.7°C (80°F)
Dewpoint: 24.9°C (77°F) [RH = 90%]
Pressure (altimeter): 30.04 inches Hg (1017.4 mb)
[Sea-level pressure: 1017.7 mb]
Winds: from the S (190 degrees) at 3 MPH (3 knots; 1.6 m/s)
Visibility: 10 or more miles (16+ km)
Ceiling: at least 12,000 feet AGL
Clouds: few clouds at 5500 feet AGL
Present Weather:
SOME DATA ABOVE MAY BE INACCURATE!!!
"$" is an indication the sensor requires maintenance
KCOF 160756Z AUTO 19003KT 10SM FEW055 27/25 A3004 RMK AO2 SLP177 T02670249 $

Conditions at: KCOF observed 16 July 2018  06:56 UTC
Temperature: 27.6°C (82°F)
Dewpoint: 24.8°C (77°F) [RH = 85%]
Pressure (altimeter): 30.05 inches Hg (1017.7 mb)
[Sea-level pressure: 1018.0 mb]
Winds: from the WSW (250 degrees) at 6 MPH (5 knots; 2.6 m/s)
Visibility: 10 or more miles (16+ km)
Ceiling: 5000 feet AGL
Clouds: broken clouds at 5000 feet AGL
Present Weather:
SOME DATA ABOVE MAY BE INACCURATE!!!
"$" is an indication the sensor requires maintenance
KCOF 160656Z AUTO 25005KT 10SM BKN050 28/25 A3005 RMK AO2 SLP180 T02760248 $

Conditions at: KCOF observed 16 July 2018  05:56 UTC
Temperature: 27.5°C (82°F)
Dewpoint: 24.3°C (76°F) [RH = 83%]
Pressure (altimeter): 30.06 inches Hg (1018.0 mb)
[Sea-level pressure: 1018.4 mb]
Winds: from the SSW (210 degrees) at 8 MPH (7 knots; 3.6 m/s)
Visibility: 10 or more miles (16+ km)
Ceiling: at least 12,000 feet AGL
Clouds: few clouds at 5500 feet AGL
few clouds at 23000 feet AGL
Present Weather:
SOME DATA ABOVE MAY BE INACCURATE!!!
"$" is an indication the sensor requires maintenance
KCOF 160556Z AUTO 21007KT 10SM FEW055 FEW230 28/24 A3006 RMK AO2 SLP184 T02750243 10295 20275 50004 $

Conditions at: KCOF observed 16 July 2018  04:56 UTC
Temperature: 28.3°C (83°F)
Dewpoint: 24.5°C (76°F) [RH = 80%]
Pressure (altimeter): 30.07 inches Hg (1018.4 mb)
[Sea-level pressure: 1018.7 mb]
Winds: from the WSW (240 degrees) at 7 MPH (6 knots; 3.1 m/s)
Visibility: 10 or more miles (16+ km)
Ceiling: at least 12,000 feet AGL
Clouds: few clouds at 7000 feet AGL
Present Weather:
SOME DATA ABOVE MAY BE INACCURATE!!!
"$" is an indication the sensor requires maintenance
KCOF 160456Z AUTO 24006KT 10SM FEW070 28/25 A3007 RMK AO2 SLP187 T02830245 403280256 $

Conditions at: KCOF observed 16 July 2018  03:56 UTC
Temperature: 28.7°C (84°F)
Dewpoint: 24.7°C (76°F) [RH = 79%]
Pressure (altimeter): 30.06 inches Hg (1018.0 mb)
[Sea-level pressure: 1018.4 mb]
Winds: from the S (170 degrees) at 10 MPH (9 knots; 4.7 m/s)
Visibility: 10 or more miles (16+ km)
Ceiling: at least 12,000 feet AGL
Clouds: few clouds at 6000 feet AGL
Present Weather:
SOME DATA ABOVE MAY BE INACCURATE!!!
"$" is an indication the sensor requires maintenance
KCOF 160356Z AUTO 17009KT 10SM FEW060 29/25 A3006 RMK AO2 SLP184 T02870247 $

Conditions at: KCOF observed 16 July 2018  02:56 UTC
Temperature: 28.7°C (84°F)
Dewpoint: 24.0°C (75°F) [RH = 76%]
Pressure (altimeter): 30.05 inches Hg (1017.7 mb)
[Sea-level pressure: 1018.0 mb]
Winds: from the S (170 degrees) at 10 MPH (9 knots; 4.7 m/s)
Visibility: 10 or more miles (16+ km)
Ceiling: at least 12,000 feet AGL
Clouds: sky clear below 12,000 feet AGL
Present Weather:
SOME DATA ABOVE MAY BE INACCURATE!!!
"$" is an indication the sensor requires maintenance
KCOF 160256Z AUTO 17009KT 10SM CLR 29/24 A3005 RMK AO2 SLP180 T02870240 52016 $

Conditions at: KCOF observed 16 July 2018  01:56 UTC
Temperature: 28.9°C (84°F)
Dewpoint: 25.7°C (78°F) [RH = 83%]
Pressure (altimeter): 30.03 inches Hg (1017.0 mb)
[Sea-level pressure: 1017.3 mb]
Winds: from the SSE (160 degrees) at 14 MPH (12 knots; 6.2 m/s)
Visibility: 10 or more miles (16+ km)
Ceiling: at least 12,000 feet AGL
Clouds: sky clear below 12,000 feet AGL
Present Weather:
SOME DATA ABOVE MAY BE INACCURATE!!!
"$" is an indication the sensor requires maintenance
KCOF 160156Z AUTO 16012KT 10SM CLR 29/26 A3003 RMK AO2 SLP173 T02890257 $

Conditions at: KCOF observed 16 July 2018  00:56 UTC
Temperature: 29.1°C (84°F)
Dewpoint: 25.0°C (77°F) [RH = 79%]
Pressure (altimeter): 30.01 inches Hg (1016.3 mb)
[Sea-level pressure: 1016.7 mb]
Winds: from the SSE (150 degrees) at 13 MPH (11 knots; 5.7 m/s)
Visibility: 10 or more miles (16+ km)
Ceiling: at least 12,000 feet AGL
Clouds: sky clear below 12,000 feet AGL
Present Weather:
SOME DATA ABOVE MAY BE INACCURATE!!!
"$" is an indication the sensor requires maintenance
KCOF 160056Z AUTO 15011KT 10SM CLR 29/25 A3001 RMK AO2 SLP167 T02910250 $

Conditions at: KCOF observed 15 July 2018  23:56 UTC
Temperature: 29.6°C (85°F)
Dewpoint: 24.2°C (76°F) [RH = 73%]
Pressure (altimeter): 30.00 inches Hg (1016.0 mb)
[Sea-level pressure: 1016.3 mb]
Winds: from the SSE (160 degrees) at 13 MPH (11 knots; 5.7 m/s)
Visibility: 10 or more miles (16+ km)
Ceiling: at least 12,000 feet AGL
Clouds: sky clear below 12,000 feet AGL
Present Weather:
SOME DATA ABOVE MAY BE INACCURATE!!!
"$" is an indication the sensor requires maintenance
KCOF 152356Z AUTO 16011KT 10SM CLR 30/24 A3000 RMK AO2 SLP163 T02960242 10319 20296 55004 $

Conditions at: KCOF observed 15 July 2018  22:56 UTC
Temperature: 30.3°C (87°F)
Dewpoint: 23.7°C (75°F) [RH = 68%]
Pressure (altimeter): 30.00 inches Hg (1016.0 mb)
[Sea-level pressure: 1016.3 mb]
Winds: from the SSE (160 degrees) at 14 MPH (12 knots; 6.2 m/s)
Visibility: 10 or more miles (16+ km)
Ceiling: at least 12,000 feet AGL
Clouds: sky clear below 12,000 feet AGL
Present Weather:
SOME DATA ABOVE MAY BE INACCURATE!!!
"$" is an indication the sensor requires maintenance
KCOF 152256Z AUTO 16012KT 10SM CLR 30/24 A3000 RMK AO2 SLP163 T03030237 $

Conditions at: KCOF observed 15 July 2018  21:56 UTC
Temperature: 30.9°C (88°F)
Dewpoint: 24.5°C (76°F) [RH = 69%]
Pressure (altimeter): 30.00 inches Hg (1016.0 mb)
[Sea-level pressure: 1016.3 mb]
Winds: from the SE (140 degrees) at 14 MPH (12 knots; 6.2 m/s)
Visibility: 10 or more miles (16+ km)
Ceiling: at least 12,000 feet AGL
Clouds: sky clear below 12,000 feet AGL
Present Weather:
SOME DATA ABOVE MAY BE INACCURATE!!!
"$" is an indication the sensor requires maintenance
KCOF 152156Z AUTO 14012KT 10SM CLR 31/25 A3000 RMK AO2 SLP163 T03090245 $

Conditions at: KCOF observed 15 July 2018  20:56 UTC
Temperature: 31.3°C (88°F)
Dewpoint: 24.9°C (77°F) [RH = 69%]
Pressure (altimeter): 30.01 inches Hg (1016.3 mb)
[Sea-level pressure: 1016.7 mb]
Winds: from the SE (130 degrees) at 10 MPH (9 knots; 4.7 m/s)
Visibility: 10 or more miles (16+ km)
Ceiling: at least 12,000 feet AGL
Clouds: sky clear below 12,000 feet AGL
Present Weather:
SOME DATA ABOVE MAY BE INACCURATE!!!
"$" is an indication the sensor requires maintenance
KCOF 152056Z AUTO 13009KT 10SM CLR 31/25 A3001 RMK AO2 SLP167 T03130249 57015 $

Conditions at: KCOF observed 15 July 2018  19:56 UTC
Temperature: 31.9°C (89°F)
Dewpoint: 24.7°C (76°F) [RH = 66%]
Pressure (altimeter): 30.02 inches Hg (1016.7 mb)
[Sea-level pressure: 1017.0 mb]
Winds: from the ESE (120 degrees) at 10 MPH (9 knots; 4.7 m/s)
Visibility: 10 or more miles (16+ km)
Ceiling: at least 12,000 feet AGL
Clouds: sky clear below 12,000 feet AGL
Present Weather:
SOME DATA ABOVE MAY BE INACCURATE!!!
"$" is an indication the sensor requires maintenance
KCOF 151956Z AUTO 12009KT 10SM CLR 32/25 A3002 RMK AO2 SLP170 T03190247 $

Conditions at: KCOF observed 15 July 2018  18:56 UTC
Temperature: 31.8°C (89°F)
Dewpoint: 24.9°C (77°F) [RH = 67%]
Pressure (altimeter): 30.05 inches Hg (1017.7 mb)
[Sea-level pressure: 1018.0 mb]
Winds: from the ESE (110 degrees) at 10 MPH (9 knots; 4.7 m/s)
Visibility: 10 or more miles (16+ km)
Ceiling: at least 12,000 feet AGL
Clouds: few clouds at 17000 feet AGL
Present Weather:
SOME DATA ABOVE MAY BE INACCURATE!!!
"$" is an indication the sensor requires maintenance
KCOF 151856Z AUTO 11009KT 10SM FEW170 32/25 A3005 RMK AO2 SLP180 T03180249 $

Conditions at: KCOF observed 15 July 2018  17:56 UTC
Temperature: 31.3°C (88°F)
Dewpoint: 24.6°C (76°F) [RH = 68%]
Pressure (altimeter): 30.06 inches Hg (1018.0 mb)
[Sea-level pressure: 1018.4 mb]
Winds: from the ESE (110 degrees) at 9 MPH (8 knots; 4.2 m/s)
Visibility: 10 or more miles (16+ km)
Ceiling: 19000 feet AGL
Clouds: few clouds at 9000 feet AGL
few clouds at 14000 feet AGL
broken clouds at 19000 feet AGL
Present Weather:
SOME DATA ABOVE MAY BE INACCURATE!!!
"$" is an indication the sensor requires maintenance
KCOF 151756Z AUTO 11008KT 10SM FEW090 FEW140 BKN190 31/25 A3006 RMK AO2 SLP184 T03130246 10328 20275 58006 $

Conditions at: KCOF observed 15 July 2018  16:56 UTC
Temperature: 31.9°C (89°F)
Dewpoint: 22.3°C (72°F) [RH = 57%]
Pressure (altimeter): 30.07 inches Hg (1018.4 mb)
[Sea-level pressure: 1018.7 mb]
Winds: from the S (190 degrees) at 5 MPH (4 knots; 2.1 m/s)
Visibility: 10 or more miles (16+ km)
Ceiling: at least 12,000 feet AGL
Clouds: few clouds at 11000 feet AGL
few clouds at 16000 feet AGL
scattered clouds at 21000 feet AGL
Present Weather:
SOME DATA ABOVE MAY BE INACCURATE!!!
"$" is an indication the sensor requires maintenance
KCOF 151656Z AUTO 19004KT 10SM FEW110 FEW160 SCT210 32/22 A3007 RMK AO2 SLP187 T03190223 $

Conditions at: KCOF observed 15 July 2018  15:56 UTC
Temperature: 31.6°C (89°F)
Dewpoint: 22.6°C (73°F) [RH = 59%]
Pressure (altimeter): 30.08 inches Hg (1018.7 mb)
[Sea-level pressure: 1019.0 mb]
Winds: from the W (280 degrees) at 5 MPH (4 knots; 2.1 m/s)
Visibility: 10 or more miles (16+ km)
Ceiling: at least 12,000 feet AGL
Clouds: few clouds at 16000 feet AGL
few clouds at 19000 feet AGL
Present Weather:
SOME DATA ABOVE MAY BE INACCURATE!!!
"$" is an indication the sensor requires maintenance
KCOF 151556Z AUTO 28004KT 10SM FEW160 FEW190 32/23 A3008 RMK AO2 SLP190 T03160226 $

Conditions at: KCOF observed 15 July 2018  14:56 UTC
Temperature: 31.0°C (88°F)
Dewpoint: 21.7°C (71°F) [RH = 58%]
Pressure (altimeter): 30.07 inches Hg (1018.4 mb)
[Sea-level pressure: 1018.7 mb]
Winds: from the W (260 degrees) at 7 MPH (6 knots; 3.1 m/s)
Visibility: 10 or more miles (16+ km)
Ceiling: at least 12,000 feet AGL
Clouds: few clouds at 18000 feet AGL
Present Weather:
SOME DATA ABOVE MAY BE INACCURATE!!!
"$" is an indication the sensor requires maintenance
KCOF 151456Z AUTO 26006KT 10SM FEW180 31/22 A3007 RMK AO2 SLP187 T03100217 51008 $

Conditions at: KCOF observed 15 July 2018  13:56 UTC
Temperature: 29.2°C (85°F)
Dewpoint: 23.8°C (75°F) [RH = 73%]
Pressure (altimeter): 30.07 inches Hg (1018.4 mb)
[Sea-level pressure: 1018.7 mb]
Winds: from the WSW (240 degrees) at 5 MPH (4 knots; 2.1 m/s)
Visibility: 10 or more miles (16+ km)
Ceiling: at least 12,000 feet AGL
Clouds: sky clear below 12,000 feet AGL
Present Weather:
SOME DATA ABOVE MAY BE INACCURATE!!!
"$" is an indication the sensor requires maintenance
KCOF 151356Z AUTO 24004KT 10SM CLR 29/24 A3007 RMK AO2 SLP187 T02920238 $

Conditions at: KCOF observed 15 July 2018  12:56 UTC
Temperature: 28.5°C (83°F)
Dewpoint: 24.9°C (77°F) [RH = 81%]
Pressure (altimeter): 30.06 inches Hg (1018.0 mb)
[Sea-level pressure: 1018.4 mb]
Winds: from the SW (230 degrees) at 6 MPH (5 knots; 2.6 m/s)
Visibility: 10 or more miles (16+ km)
Ceiling: at least 12,000 feet AGL
Clouds: sky clear below 12,000 feet AGL
Present Weather:
SOME DATA ABOVE MAY BE INACCURATE!!!
"$" is an indication the sensor requires maintenance
KCOF 151256Z AUTO 23005KT 10SM CLR 29/25 A3006 RMK AO2 SLP184 T02850249 $

Conditions at: KCOF observed 15 July 2018  11:56 UTC
Temperature: 27.4°C (81°F)
Dewpoint: 23.4°C (74°F) [RH = 79%]
Pressure (altimeter): 30.05 inches Hg (1017.7 mb)
[Sea-level pressure: 1018.0 mb]
Winds: from the SW (220 degrees) at 7 MPH (6 knots; 3.1 m/s)
Visibility: 10 or more miles (16+ km)
Ceiling: at least 12,000 feet AGL
Clouds: sky clear below 12,000 feet AGL
Present Weather:
SOME DATA ABOVE MAY BE INACCURATE!!!
"$" is an indication the sensor requires maintenance
KCOF 151156Z AUTO 22006KT 10SM CLR 27/23 A3005 RMK AO2 SLP180 T02740234 10274 20256 53005 $

Conditions at: KCOF observed 15 July 2018  10:56 UTC
Temperature: 26.0°C (79°F)
Dewpoint: 24.6°C (76°F) [RH = 92%]
Pressure (altimeter): 30.04 inches Hg (1017.4 mb)
[Sea-level pressure: 1017.7 mb]
Winds: from the SSW (210 degrees) at 7 MPH (6 knots; 3.1 m/s)
Visibility: 10 or more miles (16+ km)
Ceiling: at least 12,000 feet AGL
Clouds: sky clear below 12,000 feet AGL
Present Weather:
SOME DATA ABOVE MAY BE INACCURATE!!!
"$" is an indication the sensor requires maintenance
KCOF 151056Z AUTO 21006KT 10SM CLR 26/25 A3004 RMK AO2 SLP177 T02600246 $

Conditions at: KCOF observed 15 July 2018  09:56 UTC
Temperature: 26.4°C (80°F)
Dewpoint: 25.3°C (78°F) [RH = 94%]
Pressure (altimeter): 30.04 inches Hg (1017.4 mb)
[Sea-level pressure: 1017.7 mb]
Winds: from the SSW (200 degrees) at 6 MPH (5 knots; 2.6 m/s)
Visibility: 10 or more miles (16+ km)
Ceiling: at least 12,000 feet AGL
Clouds: sky clear below 12,000 feet AGL
Present Weather:
SOME DATA ABOVE MAY BE INACCURATE!!!
"$" is an indication the sensor requires maintenance
KCOF 150956Z AUTO 20005KT 10SM CLR 26/25 A3004 RMK AO2 SLP177 T02640253 $

Conditions at: KCOF observed 15 July 2018  08:56 UTC
Temperature: 26.5°C (80°F)
Dewpoint: 23.7°C (75°F) [RH = 85%]
Pressure (altimeter): 30.03 inches Hg (1017.0 mb)
[Sea-level pressure: 1017.3 mb]
Winds: from the SSW (200 degrees) at 7 MPH (6 knots; 3.1 m/s)
Visibility: 10 or more miles (16+ km)
Ceiling: at least 12,000 feet AGL
Clouds: sky clear below 12,000 feet AGL
Present Weather:
SOME DATA ABOVE MAY BE INACCURATE!!!
"$" is an indication the sensor requires maintenance
KCOF 150856Z AUTO 20006KT 10SM CLR 27/24 A3003 RMK AO2 SLP173 T02650237 55006 $

Conditions at: KCOF observed 15 July 2018  07:56 UTC
Temperature: 26.6°C (80°F)
Dewpoint: 25.0°C (77°F) [RH = 91%]
Pressure (altimeter): 30.03 inches Hg (1017.0 mb)
[Sea-level pressure: 1017.3 mb]
Winds: from the SSW (200 degrees) at 3 MPH (3 knots; 1.6 m/s)
Visibility: 10 or more miles (16+ km)
Ceiling: at least 12,000 feet AGL
Clouds: sky clear below 12,000 feet AGL
Present Weather:
SOME DATA ABOVE MAY BE INACCURATE!!!
"$" is an indication the sensor requires maintenance
KCOF 150756Z AUTO 20003KT 10SM CLR 27/25 A3003 RMK AO2 SLP173 T02660250 $

Conditions at: KCOF observed 15 July 2018  06:56 UTC
Temperature: 26.8°C (80°F)
Dewpoint: 25.3°C (78°F) [RH = 92%]
Pressure (altimeter): 30.03 inches Hg (1017.0 mb)
[Sea-level pressure: 1017.3 mb]
Winds: from the SSW (210 degrees) at 6 MPH (5 knots; 2.6 m/s)
Visibility: 10 or more miles (16+ km)
Ceiling: at least 12,000 feet AGL
Clouds: sky clear below 12,000 feet AGL
Present Weather:
SOME DATA ABOVE MAY BE INACCURATE!!!
"$" is an indication the sensor requires maintenance
KCOF 150656Z AUTO 21005KT 10SM CLR 27/25 A3003 RMK AO2 SLP173 T02680253 $

Conditions at: KCOF observed 15 July 2018  05:56 UTC
Temperature: 27.3°C (81°F)
Dewpoint: 25.8°C (78°F) [RH = 92%]
Pressure (altimeter): 30.05 inches Hg (1017.7 mb)
[Sea-level pressure: 1018.0 mb]
Winds: from the SSW (200 degrees) at 6 MPH (5 knots; 2.6 m/s)
Visibility: 10 or more miles (16+ km)
Ceiling: at least 12,000 feet AGL
Clouds: scattered clouds at 4900 feet AGL
Present Weather:
SOME DATA ABOVE MAY BE INACCURATE!!!
"$" is an indication the sensor requires maintenance
KCOF 150556Z AUTO 20005KT 10SM SCT049 27/26 A3005 RMK AO2 SLP180 T02730258 10290 20271 58005 $

Conditions at: KCOF observed 15 July 2018  04:56 UTC
Temperature: 27.1°C (81°F)
Dewpoint: 25.8°C (78°F) [RH = 93%]
Pressure (altimeter): 30.07 inches Hg (1018.4 mb)
[Sea-level pressure: 1018.7 mb]
Winds: from the SSW (210 degrees) at 7 MPH (6 knots; 3.1 m/s)
Visibility: 10 or more miles (16+ km)
Ceiling: at least 12,000 feet AGL
Clouds: sky clear below 12,000 feet AGL
Present Weather:
SOME DATA ABOVE MAY BE INACCURATE!!!
"$" is an indication the sensor requires maintenance
KCOF 150456Z AUTO 21006KT 10SM CLR 27/26 A3007 RMK AO2 SLP187 T02710258 403110254 $